createdAt,value
2022-09-15T00:01:01.487Z,0
2022-09-15T00:06:41.868Z,0
2022-09-15T00:12:04.335Z,0
2022-09-15T00:17:26.916Z,0
2022-09-15T00:22:49.674Z,0
2022-09-15T00:28:12.227Z,0
2022-09-15T00:39:40.549Z,0
2022-09-15T00:45:04.107Z,0
2022-09-15T00:50:35.420Z,0
2022-09-15T00:55:58.934Z,0
2022-09-15T01:01:32.865Z,0
2022-09-15T01:06:55.988Z,0
2022-09-15T01:12:18.291Z,0
2022-09-15T01:17:43.165Z,0
2022-09-15T01:28:35.727Z,0
2022-09-15T01:33:58.281Z,0
2022-09-15T01:39:24.444Z,0
2022-09-15T01:44:47.188Z,0
2022-09-15T01:50:09.905Z,0
2022-09-15T01:55:32.554Z,0
2022-09-15T02:00:58.271Z,0
2022-09-15T02:06:21.383Z,0
2022-09-15T02:11:43.763Z,0
2022-09-15T02:17:09.278Z,0
2022-09-15T02:22:31.618Z,0
2022-09-15T02:28:15.509Z,0
2022-09-15T02:33:37.844Z,0
2022-09-15T02:39:00.554Z,0
2022-09-15T02:44:25.470Z,0
2022-09-15T02:49:50.877Z,0
2022-09-15T02:55:13.282Z,0
2022-09-15T03:01:13.679Z,0
2022-09-15T03:06:36.757Z,0
2022-09-15T03:11:59.095Z,0
2022-09-15T03:17:21.402Z,0
2022-09-15T03:28:24.458Z,0
2022-09-15T03:33:47.328Z,0
2022-09-15T03:39:10.188Z,0
2022-09-15T03:44:33.104Z,0
2022-09-15T03:49:55.543Z,0
2022-09-15T03:55:18.099Z,0
2022-09-15T04:00:40.783Z,0
2022-09-15T04:06:06.816Z,0
2022-09-15T04:11:34.112Z,0
2022-09-15T04:16:56.589Z,0
2022-09-15T04:22:18.827Z,0
2022-09-15T04:27:41.493Z,0
2022-09-15T04:38:28.811Z,0
2022-09-15T04:43:54.187Z,0
2022-09-15T04:49:16.701Z,0
2022-09-15T04:54:50.718Z,0
2022-09-15T05:00:13.121Z,0
2022-09-15T05:05:38.001Z,2
2022-09-15T05:11:11.033Z,6
2022-09-15T05:16:33.791Z,7.1
2022-09-15T05:22:06.022Z,18.3
2022-09-15T05:27:28.324Z,19.8
2022-09-15T05:32:50.856Z,23.4
2022-09-15T05:38:16.437Z,39
2022-09-15T05:49:07.740Z,65.9
2022-09-15T05:54:30.485Z,66.6
2022-09-15T06:05:21.544Z,96.9
2022-09-15T06:10:44.065Z,133.2
2022-09-15T06:16:15.666Z,173.7
2022-09-15T06:21:38.719Z,203.5
2022-09-15T06:27:01.416Z,244.8
2022-09-15T06:32:26.867Z,241
2022-09-15T06:37:57.423Z,254.6
2022-09-15T06:43:20.136Z,179.5
2022-09-15T06:48:48.440Z,156.7
2022-09-15T06:54:14.592Z,216
2022-09-15T06:59:37.414Z,226.7
2022-09-15T07:04:59.932Z,248.4
2022-09-15T07:10:22.464Z,273.9
2022-09-15T07:15:44.989Z,257.8
2022-09-15T07:21:07.496Z,268.9
2022-09-15T07:26:33.050Z,189
2022-09-15T07:31:56.319Z,221.6
2022-09-15T07:37:19.182Z,297.6
2022-09-15T07:42:41.970Z,393.2
2022-09-15T07:48:04.803Z,496
2022-09-15T07:53:27.385Z,585.2
2022-09-15T07:58:52.971Z,607.2
2022-09-15T08:09:40.360Z,482.4
2022-09-15T08:15:05.891Z,441.9
2022-09-15T08:20:28.311Z,447.7
2022-09-15T08:25:50.926Z,508.6
2022-09-15T08:31:19.516Z,261.5
2022-09-15T08:36:41.987Z,342.3
2022-09-15T08:42:04.466Z,303.2
2022-09-15T08:47:27.345Z,513
2022-09-15T08:52:50.654Z,655
2022-09-15T08:58:14.440Z,874
2022-09-15T09:03:37.639Z,852.6
2022-09-15T09:09:20.163Z,697.2
2022-09-15T09:14:48.160Z,812.1
2022-09-15T09:20:08.748Z,656.9
2022-09-15T09:25:31.923Z,962.4
2022-09-15T09:30:54.209Z,709.3
2022-09-15T09:36:16.353Z,682.6
2022-09-15T09:41:39.539Z,798.3
2022-09-15T09:52:27.902Z,506.8
2022-09-15T09:57:52.613Z,433
2022-09-15T10:03:15.137Z,469.1
2022-09-15T10:09:01.542Z,722.9
2022-09-15T10:14:26.354Z,896.5
2022-09-15T10:19:50.572Z,960.3
2022-09-15T10:25:15.057Z,916.4
2022-09-15T10:30:44.631Z,886.3
2022-09-15T10:36:07.290Z,814.6
2022-09-15T10:41:30.082Z,1016.7
2022-09-15T10:47:06.777Z,1877.3
2022-09-15T10:52:31.407Z,1531.6
2022-09-15T10:58:00.979Z,1029.6
2022-09-15T11:03:23.075Z,943
2022-09-15T11:08:46.120Z,962.6
2022-09-15T11:14:08.660Z,999.3
2022-09-15T11:19:34.035Z,795.2
2022-09-15T11:24:56.599Z,1047.3
2022-09-15T11:35:42.304Z,1104.4
2022-09-15T11:41:07.652Z,804.2
2022-09-15T11:46:30.407Z,1458.6
2022-09-15T11:51:51.968Z,602
2022-09-15T11:57:13.508Z,1582.3
2022-09-15T12:02:38.242Z,565.6
2022-09-15T12:07:59.886Z,337.7
2022-09-15T12:13:21.758Z,260.9
2022-09-15T12:18:47.175Z,435.6
2022-09-15T12:24:10.320Z,585
2022-09-15T12:29:38.102Z,895.5
2022-09-15T12:35:13.627Z,925.6
2022-09-15T12:40:36.555Z,729.8
2022-09-15T12:45:59.647Z,465.2
2022-09-15T12:51:30.854Z,313.3
2022-09-15T12:56:55.590Z,175.3
2022-09-15T13:02:29.654Z,135.8
2022-09-15T13:07:52.443Z,242.1
2022-09-15T13:13:15.538Z,578.1
2022-09-15T13:24:01.021Z,189.2
2022-09-15T13:29:30.599Z,120.2
2022-09-15T13:35:16.350Z,97.6
2022-09-15T13:40:43.607Z,112.8
2022-09-15T13:46:06.769Z,56.5
2022-09-15T13:51:31.650Z,70.8
2022-09-15T13:56:54.334Z,213.3
2022-09-15T14:02:17.870Z,246.4
2022-09-15T14:07:41.006Z,189.5
2022-09-15T14:13:06.316Z,150.9
2022-09-15T14:18:36.219Z,146.5
2022-09-15T14:23:58.703Z,183.9
2022-09-15T14:29:21.231Z,140.2
2022-09-15T14:40:09.211Z,118.4
2022-09-15T14:46:06.283Z,91.7
2022-09-15T14:51:38.833Z,68.7
2022-09-15T14:57:01.545Z,70.4
2022-09-15T15:02:26.748Z,93.1
2022-09-15T15:07:51.997Z,126.4
2022-09-15T15:13:14.429Z,134.5
2022-09-15T15:18:44.917Z,120.3
2022-09-15T15:24:07.783Z,153.1
2022-09-15T15:29:40.726Z,225
2022-09-15T15:35:03.375Z,233.7
2022-09-15T15:40:26.174Z,251.9
2022-09-15T15:45:52.374Z,282.3
2022-09-15T15:51:17.717Z,212.8
2022-09-15T15:56:40.517Z,188.4
2022-09-15T16:02:05.580Z,148.9
2022-09-15T16:07:33.652Z,118.1
2022-09-15T16:12:56.020Z,102.9
2022-09-15T16:34:13.212Z,45.2
2022-09-15T16:39:35.463Z,36.3
2022-09-15T16:44:58.816Z,41.4
2022-09-15T16:50:21.355Z,64.6
2022-09-15T16:55:43.992Z,61.1
2022-09-15T17:01:08.865Z,55.5
2022-09-15T17:06:34.835Z,47.8
2022-09-15T17:12:36.656Z,37.3
2022-09-15T17:17:59.526Z,36.1
2022-09-15T17:23:21.806Z,30.4
2022-09-15T17:28:44.300Z,21.7
2022-09-15T17:34:06.709Z,25.1
2022-09-15T17:39:29.446Z,15.8
2022-09-15T17:44:52.267Z,3
2022-09-15T17:50:14.852Z,0
2022-09-15T17:55:37.155Z,0
2022-09-15T18:00:59.840Z,0
2022-09-15T18:06:25.582Z,0
2022-09-15T18:11:48.435Z,0
2022-09-15T18:27:56.763Z,0
2022-09-15T18:33:19.242Z,0
2022-09-15T18:44:20.436Z,0
2022-09-15T18:49:43.365Z,0
2022-09-15T19:01:26.878Z,0
2022-09-15T19:06:50.739Z,0
2022-09-15T19:12:13.392Z,0
2022-09-15T19:17:36.089Z,0
2022-09-15T19:22:58.631Z,0
2022-09-15T19:28:21.191Z,0
2022-09-15T19:33:43.520Z,0
2022-09-15T19:39:06.154Z,0
2022-09-15T19:44:28.865Z,0
2022-09-15T19:49:51.362Z,0
2022-09-15T19:55:13.713Z,0
2022-09-15T20:00:38.724Z,0
2022-09-15T20:11:26.727Z,0
2022-09-15T20:16:49.358Z,0
2022-09-15T20:22:12.853Z,0
2022-09-15T20:27:35.487Z,0
2022-09-15T20:33:05.146Z,0
2022-09-15T20:38:27.598Z,0
2022-09-15T20:43:50.116Z,0
2022-09-15T20:49:17.962Z,0
2022-09-15T20:54:40.369Z,0
2022-09-15T21:00:03.917Z,0
2022-09-15T21:05:26.828Z,0
2022-09-15T21:10:49.536Z,0
2022-09-15T21:16:12.630Z,0
2022-09-15T21:21:36.350Z,0
2022-09-15T21:27:00.197Z,0
2022-09-15T21:32:23.251Z,0
2022-09-15T21:37:46.057Z,0
2022-09-15T21:43:08.509Z,0
2022-09-15T21:53:54.058Z,0
2022-09-15T21:59:17.400Z,0
2022-09-15T22:04:42.781Z,0
2022-09-15T22:10:05.518Z,0
2022-09-15T22:15:31.355Z,0
2022-09-15T22:20:54.733Z,0
2022-09-15T22:26:17.220Z,0
2022-09-15T22:31:44.599Z,0
2022-09-15T22:37:10.120Z,0
2022-09-15T22:42:32.625Z,0
2022-09-15T22:47:55.273Z,0
2022-09-15T22:53:17.888Z,0
2022-09-15T22:58:40.583Z,0
2022-09-15T23:04:03.313Z,0
2022-09-15T23:09:25.934Z,0
2022-09-15T23:14:48.472Z,0
2022-09-15T23:20:11.035Z,0
2022-09-15T23:30:56.893Z,0
2022-09-15T23:36:19.947Z,0
2022-09-15T23:41:42.504Z,0
2022-09-15T23:47:05.575Z,0
2022-09-15T23:52:28.304Z,0
2022-09-15T23:57:57.269Z,0
